Time;durP1;ratioP1;P1;durP2;ratioP2;P2;SDS_P1;SDS_P2;PMS_P1;PMS_P2;Temp;Humidity;BMP_temperature;BMP_pressure;BME280_temperature;BME280_humidity;BME280_pressure;Samples;Min_cycle;Max_cycle;Signal;HPM_P1;HPM_P2
2020/12/22 00:00:47;;;;;;;1.92;1.20;;;;;;;;;;5109796;28;20114;-58
2020/12/22 00:09:26;;;;;;;2.03;1.27;;;;;;;;;;5127735;28;20030;-58
2020/12/22 00:12:32;;;;;;;1.85;1.13;;;;;;;;;;5114169;28;20061;-58
2020/12/22 00:15:01;;;;;;;3.35;1.30;;;;;;;;;;5031869;28;20033;-55
2020/12/22 00:24:16;;;;;;;2.05;1.55;;;;;;;;;;5048654;28;20028;-57
2020/12/22 00:26:51;;;;;;;2.28;1.48;;;;;;;;;;5088732;28;20059;-58
2020/12/22 00:29:24;;;;;;;2.80;1.60;;;;;;;;;;5111089;28;20024;-58
2020/12/22 00:32:21;;;;;;;;;;;;;;;;;;;;;
2020/12/22 00:35:19;;;;;;;2.10;1.20;;;;;;;;;;5110119;28;20060;-57
2020/12/22 00:38:06;;;;;;;1.60;1.05;;;;;;;;;;5110025;28;20016;-58
2020/12/22 00:43:49;;;;;;;1.70;1.10;;;;;;;;;;5110478;28;20034;-55
2020/12/22 00:46:34;;;;;;;1.83;1.02;;;;;;;;;;5104587;28;20031;-56
2020/12/22 00:49:39;;;;;;;1.33;0.88;;;;;;;;;;5110327;28;20028;-58
2020/12/22 00:52:38;;;;;;;1.67;1.00;;;;;;;;;;5108210;28;20028;-57
2020/12/22 00:58:07;;;;;;;1.35;0.75;;;;;;;;;;5110463;28;20057;-57
2020/12/22 01:01:12;;;;;;;2.20;1.40;;;;;;;;;;5106185;28;20039;-58
2020/12/22 01:10:05;;;;;;;1.58;0.85;;;;;;;;;;5036696;28;20134;-58
2020/12/22 01:12:47;;;;;;;2.17;1.00;;;;;;;;;;5109775;28;20024;-55
2020/12/22 01:21:25;;;;;;;1.25;0.50;;;;;;;;;;5125887;28;20065;-57
2020/12/22 01:26:58;;;;;;;;;;;;;;;;;;;;;
2020/12/22 01:29:40;;;;;;;1.50;0.90;;;;;;;;;;5130022;28;20055;-58
2020/12/22 01:32:39;;;;;;;0.93;0.43;;;;;;;;;;5111682;28;20031;-59
2020/12/22 01:35:32;;;;;;;1.55;0.50;;;;;;;;;;5085274;28;20031;-57
2020/12/22 01:41:16;;;;;;;1.25;0.75;;;;;;;;;;5067302;28;20040;-58
2020/12/22 01:44:15;;;;;;;1.58;0.85;;;;;;;;;;5067314;28;20036;-57
2020/12/22 01:47:31;;;;;;;1.15;0.50;;;;;;;;;;5039605;28;20454;-58
2020/12/22 01:50:18;;;;;;;0.90;0.40;;;;;;;;;;5007375;28;20042;-58
2020/12/22 01:53:03;;;;;;;0.55;0.38;;;;;;;;;;5022243;28;20041;-58
2020/12/22 01:58:27;;;;;;;0.95;0.40;;;;;;;;;;5047131;28;20033;-57
2020/12/22 02:01:02;;;;;;;0.68;0.30;;;;;;;;;;5047098;28;20029;-58
2020/12/22 02:04:03;;;;;;;0.63;0.30;;;;;;;;;;5051969;28;20109;-58
2020/12/22 02:06:48;;;;;;;0.77;0.40;;;;;;;;;;5102213;28;20058;-57
2020/12/22 02:09:35;;;;;;;0.32;0.13;;;;;;;;;;5106758;28;20028;-58
2020/12/22 02:12:11;;;;;;;0.32;0.20;;;;;;;;;;5106987;28;20024;-58
2020/12/22 02:14:37;;;;;;;0.22;0.10;;;;;;;;;;5082880;28;20066;-58
2020/12/22 02:17:13;;;;;;;0.75;0.20;;;;;;;;;;5104945;28;20491;-57
2020/12/22 02:20:09;;;;;;;0.47;0.20;;;;;;;;;;5085214;28;20044;-58
2020/12/22 02:22:53;;;;;;;0.40;0.10;;;;;;;;;;5107397;28;20047;-58
2020/12/22 02:25:32;;;;;;;0.22;0.20;;;;;;;;;;5129289;28;20024;-58
2020/12/22 02:28:11;;;;;;;0.13;0.10;;;;;;;;;;5129322;28;20070;-58
2020/12/22 02:37:07;;;;;;;;;;;;;;;;;;5125650;28;20031;-57
2020/12/22 02:46:10;;;;;;;;;;;;;;;;;;5011430;28;20045;-58
2020/12/22 02:49:09;;;;;;;0.77;0.30;;;;;;;;;;5045576;28;19905;-58
2020/12/22 02:51:56;;;;;;;0.20;0.10;;;;;;;;;;5013031;28;20706;-59
2020/12/22 02:54:44;;;;;;;0.00;0.00;;;;;;;;;;5128260;28;20032;-58
2020/12/22 02:57:16;;;;;;;0.13;0.10;;;;;;;;;;5127433;28;20028;-58
2020/12/22 03:00:01;;;;;;;0.30;0.10;;;;;;;;;;5109509;28;20051;-57
2020/12/22 03:03:06;;;;;;;;;;;;;;;;;;;;;
2020/12/22 03:06:01;;;;;;;0.20;0.10;;;;;;;;;;5061652;28;20055;-57
2020/12/22 03:08:41;;;;;;;0.45;0.20;;;;;;;;;;5106368;28;20403;-57
2020/12/22 03:11:33;;;;;;;0.43;0.20;;;;;;;;;;5110131;28;20058;-56
2020/12/22 03:23:35;;;;;;;0.45;0.20;;;;;;;;;;5108045;28;20062;-58
2020/12/22 03:26:19;;;;;;;0.75;0.30;;;;;;;;;;5108229;28;20067;-57
2020/12/22 03:29:04;;;;;;;0.10;0.10;;;;;;;;;;5107829;28;20039;-58
2020/12/22 03:32:01;;;;;;;0.55;0.20;;;;;;;;;;5107408;28;20051;-58
2020/12/22 03:46:59;;;;;;;0.20;0.10;;;;;;;;;;5038357;28;20029;-58
2020/12/22 03:50:12;;;;;;;;;;;;;;;;;;;;;
2020/12/22 03:52:58;;;;;;;0.10;0.10;;;;;;;;;;5105522;28;20040;-58
2020/12/22 03:55:28;;;;;;;;;;;;;;;;;;5108108;28;20016;-56
2020/12/22 03:58:15;;;;;;;0.10;0.10;;;;;;;;;;5106765;28;19957;-58
2020/12/22 04:07:01;;;;;;;0.30;0.13;;;;;;;;;;5037917;28;20060;-59
2020/12/22 04:13:12;;;;;;;0.00;0.00;;;;;;;;;;5106916;28;20027;-57
2020/12/22 04:15:53;;;;;;;0.13;0.08;;;;;;;;;;5028020;28;20036;-58
2020/12/22 04:21:33;;;;;;;0.10;0.10;;;;;;;;;;5044970;28;20037;-57
2020/12/22 04:24:44;;;;;;;0.10;0.10;;;;;;;;;;5037761;28;20043;-58
2020/12/22 04:27:39;;;;;;;0.47;0.20;;;;;;;;;;5106813;28;20096;-58
2020/12/22 04:30:26;;;;;;;0.17;0.10;;;;;;;;;;5056807;28;20028;-58
2020/12/22 04:33:15;;;;;;;0.28;0.10;;;;;;;;;;5097792;28;20020;-59
2020/12/22 04:39:24;;;;;;;0.00;0.00;;;;;;;;;;5082618;28;20039;-58
2020/12/22 04:42:32;;;;;;;0.20;0.20;;;;;;;;;;5078422;28;20040;-58
2020/12/22 04:45:35;;;;;;;0.10;0.10;;;;;;;;;;4994525;28;20499;-57
2020/12/22 04:48:07;;;;;;;0.30;0.10;;;;;;;;;;4995522;28;20041;-57
2020/12/22 04:50:48;;;;;;;0.47;0.20;;;;;;;;;;4976351;28;20080;-57
2020/12/22 04:56:30;;;;;;;0.05;0.00;;;;;;;;;;4976857;28;20087;-57
2020/12/22 04:59:43;;;;;;;0.28;0.10;;;;;;;;;;5077124;28;20033;-58
2020/12/22 05:02:09;;;;;;;0.00;0.00;;;;;;;;;;5079195;28;20028;-58
2020/12/22 05:08:18;;;;;;;0.52;0.25;;;;;;;;;;5087238;28;20036;-59
2020/12/22 05:10:47;;;;;;;0.38;0.25;;;;;;;;;;4994699;28;20109;-57
2020/12/22 05:13:53;;;;;;;0.00;0.00;;;;;;;;;;4979315;28;20101;-59
2020/12/22 05:16:41;;;;;;;0.10;0.10;;;;;;;;;;4976645;28;20042;-59
2020/12/22 05:19:34;;;;;;;0.22;0.10;;;;;;;;;;4994033;28;20055;-56
2020/12/22 05:21:59;;;;;;;0.00;0.00;;;;;;;;;;4994460;28;20030;-57
2020/12/22 05:24:34;;;;;;;0.00;0.00;;;;;;;;;;4995013;28;20040;-58
2020/12/22 05:27:09;;;;;;;0.25;0.10;;;;;;;;;;4978460;28;20507;-58
2020/12/22 05:29:53;;;;;;;0.30;0.10;;;;;;;;;;4994749;28;20026;-58
2020/12/22 05:35:21;;;;;;;0.03;0.00;;;;;;;;;;5005325;28;20037;-58
2020/12/22 05:38:02;;;;;;;0.05;0.00;;;;;;;;;;4990001;28;20049;-58
2020/12/22 05:40:54;;;;;;;0.20;0.10;;;;;;;;;;5030636;28;20035;-59
2020/12/22 05:43:23;;;;;;;0.40;0.10;;;;;;;;;;5109301;28;20050;-58
2020/12/22 05:49:09;;;;;;;0.15;0.05;;;;;;;;;;5109489;28;20043;-58
2020/12/22 05:51:55;;;;;;;0.05;0.00;;;;;;;;;;5103783;28;20076;-58
2020/12/22 05:54:40;;;;;;;0.73;0.22;;;;;;;;;;5109745;28;20024;-57
2020/12/22 05:57:33;;;;;;;0.00;0.00;;;;;;;;;;5109130;28;20047;-57
2020/12/22 06:00:17;;;;;;;0.00;0.00;;;;;;;;;;5105929;28;20039;-58
2020/12/22 06:02:58;;;;;;;0.00;0.00;;;;;;;;;;5090989;28;20413;-57
2020/12/22 06:08:43;;;;;;;0.30;0.10;;;;;;;;;;5108936;28;20039;-58
2020/12/22 06:11:34;;;;;;;0.32;0.17;;;;;;;;;;5108910;28;20050;-58
2020/12/22 06:14:13;;;;;;;3.70;0.10;;;;;;;;;;5108880;28;20037;-58
2020/12/22 06:16:47;;;;;;;0.10;0.10;;;;;;;;;;5107093;28;20411;-57
2020/12/22 06:19:28;;;;;;;0.52;0.30;;;;;;;;;;5109131;28;20044;-58
2020/12/22 06:22:17;;;;;;;0.10;0.10;;;;;;;;;;5129833;28;20110;-58
2020/12/22 06:25:02;;;;;;;0.45;0.20;;;;;;;;;;5129537;28;20040;-57
2020/12/22 06:43:11;;;;;;;0.15;0.10;;;;;;;;;;5032410;28;20065;-58
2020/12/22 06:45:56;;;;;;;0.08;0.08;;;;;;;;;;5015956;28;20048;-57
2020/12/22 06:48:52;;;;;;;0.05;0.05;;;;;;;;;;5016806;28;20029;-57
2020/12/22 06:51:53;;;;;;;;;;;;;;;;;;;;;
2020/12/22 06:54:45;;;;;;;0.10;0.10;;;;;;;;;;5113642;28;20134;-57
2020/12/22 07:06:44;;;;;;;0.10;0.00;;;;;;;;;;5115339;28;20476;-57
2020/12/22 07:09:55;;;;;;;0.20;0.20;;;;;;;;;;5115560;28;20484;-57
2020/12/22 07:12:28;;;;;;;0.22;0.20;;;;;;;;;;5097032;28;20028;-58
2020/12/22 07:15:12;;;;;;;0.38;0.20;;;;;;;;;;5115273;28;20164;-58
2020/12/22 07:17:47;;;;;;;0.40;0.10;;;;;;;;;;5097486;28;20476;-57
2020/12/22 07:20:47;;;;;;;1.08;0.40;;;;;;;;;;5096176;28;20066;-57
2020/12/22 07:26:34;;;;;;;0.20;0.10;;;;;;;;;;5115102;28;20036;-58
2020/12/22 07:29:29;;;;;;;;;;;;;;;;;;;;;
2020/12/22 07:32:17;;;;;;;;;;;;;;;;;;;;;
2020/12/22 07:35:19;;;;;;;0.20;0.17;;;;;;;;;;5113541;28;20114;-57
2020/12/22 07:41:27;;;;;;;0.98;0.50;;;;;;;;;;5114367;28;20036;-58
2020/12/22 07:44:12;;;;;;;0.05;0.05;;;;;;;;;;5096937;28;20468;-58
2020/12/22 07:46:57;;;;;;;0.32;0.17;;;;;;;;;;5114225;28;20069;-58
2020/12/22 07:49:47;;;;;;;0.13;0.10;;;;;;;;;;5082295;28;20059;-58
2020/12/22 07:52:36;;;;;;;0.55;0.28;;;;;;;;;;5114156;28;20088;-58
2020/12/22 07:55:34;;;;;;;0.20;0.10;;;;;;;;;;5096258;28;20392;-59
2020/12/22 07:58:17;;;;;;;0.30;0.20;;;;;;;;;;5114468;28;20028;-58
2020/12/22 08:01:15;;;;;;;0.20;0.10;;;;;;;;;;5114658;28;20030;-58
2020/12/22 08:04:01;;;;;;;0.47;0.35;;;;;;;;;;5096421;28;20481;-58
2020/12/22 08:19:40;;;;;;;0.13;0.10;;;;;;;;;;5009875;28;20042;-58
2020/12/22 08:22:13;;;;;;;0.20;0.10;;;;;;;;;;5115716;28;20369;-58
2020/12/22 08:24:50;;;;;;;0.00;0.00;;;;;;;;;;5081213;28;20123;-58
2020/12/22 08:27:19;;;;;;;0.05;0.05;;;;;;;;;;5118835;28;20028;-58
2020/12/22 08:33:06;;;;;;;0.00;0.00;;;;;;;;;;5034544;28;20124;-57
2020/12/22 08:35:49;;;;;;;0.55;0.20;;;;;;;;;;5054242;28;20071;-57
2020/12/22 08:38:27;;;;;;;0.73;0.20;;;;;;;;;;5054015;28;20037;-58
2020/12/22 08:41:07;;;;;;;;;;;;;;;;;;;;;
2020/12/22 08:44:15;;;;;;;0.15;0.05;;;;;;;;;;5046539;28;20029;-57
2020/12/22 08:50:20;;;;;;;;;;;;;;;;;;;;;
2020/12/22 08:52:57;;;;;;;1.25;0.13;;;;;;;;;;5046353;28;20045;-57
2020/12/22 08:55:29;;;;;;;0.17;0.10;;;;;;;;;;5014392;28;20118;-59
2020/12/22 08:58:21;;;;;;;0.10;0.10;;;;;;;;;;5015095;28;20104;-59
2020/12/22 09:07:15;;;;;;;0.47;0.20;;;;;;;;;;5023164;28;20036;-57
2020/12/22 09:12:34;;;;;;;1.25;0.50;;;;;;;;;;5074938;28;20034;-59
2020/12/22 09:18:24;;;;;;;0.28;0.13;;;;;;;;;;5074617;28;20051;-59
2020/12/22 09:33:40;;;;;;;0.15;0.10;;;;;;;;;;5118081;28;20031;-58
2020/12/22 09:36:28;;;;;;;0.22;0.20;;;;;;;;;;5116962;28;20399;-58
2020/12/22 09:42:11;;;;;;;0.32;0.10;;;;;;;;;;5116818;28;20385;-58
2020/12/22 09:44:37;;;;;;;0.00;0.00;;;;;;;;;;5099541;28;20459;-58
2020/12/22 09:47:10;;;;;;;1.60;0.20;;;;;;;;;;5117335;28;20027;-57
2020/12/22 09:49:55;;;;;;;0.10;0.10;;;;;;;;;;5100270;28;20028;-57
2020/12/22 09:52:49;;;;;;;0.50;0.10;;;;;;;;;;5097439;28;20032;-59
2020/12/22 09:55:39;;;;;;;0.75;0.38;;;;;;;;;;5116183;28;20065;-58
2020/12/22 09:58:20;;;;;;;0.17;0.10;;;;;;;;;;5097346;28;20369;-58
2020/12/22 10:04:22;;;;;;;;;;;;;;;;;;;;;
2020/12/22 10:07:16;;;;;;;0.28;0.20;;;;;;;;;;5024858;28;20045;-56
2020/12/22 10:19:37;;;;;;;0.00;0.00;;;;;;;;;;5081208;28;20440;-57
2020/12/22 10:22:29;;;;;;;0.00;0.00;;;;;;;;;;5093559;28;20115;-59
2020/12/22 10:25:28;;;;;;;0.32;0.15;;;;;;;;;;5092413;28;20039;-57
2020/12/22 10:31:58;;;;;;;0.00;0.00;;;;;;;;;;5059201;28;20055;-58
2020/12/22 10:34:30;;;;;;;0.73;0.40;;;;;;;;;;5104497;28;20092;-58
2020/12/22 10:37:05;;;;;;;0.85;0.30;;;;;;;;;;5091699;28;20040;-58
2020/12/22 10:39:53;;;;;;;0.10;0.10;;;;;;;;;;5115548;28;20050;-58
2020/12/22 10:42:57;;;;;;;0.35;0.10;;;;;;;;;;5115324;28;20072;-58
2020/12/22 10:45:34;;;;;;;0.20;0.10;;;;;;;;;;5024487;28;20044;-58
2020/12/22 10:48:12;;;;;;;0.52;0.10;;;;;;;;;;5052720;28;20532;-59
2020/12/22 10:53:43;;;;;;;0.32;0.17;;;;;;;;;;5032090;28;20116;-58
2020/12/22 10:56:37;;;;;;;0.52;0.20;;;;;;;;;;5079814;28;20039;-58
2020/12/22 11:02:13;;;;;;;0.65;0.25;;;;;;;;;;5103672;28;20373;-59
2020/12/22 11:04:53;;;;;;;0.60;0.17;;;;;;;;;;5114626;28;20031;-59
2020/12/22 11:10:28;;;;;;;;;;;;;;;;;;;;;
2020/12/22 11:13:09;;;;;;;0.98;0.45;;;;;;;;;;5114735;28;20472;-59
2020/12/22 11:15:59;;;;;;;0.32;0.15;;;;;;;;;;5115345;28;20068;-59
2020/12/22 11:18:32;;;;;;;0.15;0.10;;;;;;;;;;5097243;28;20360;-58
2020/12/22 11:24:01;;;;;;;0.25;0.10;;;;;;;;;;5083305;28;20027;-58
2020/12/22 11:26:46;;;;;;;0.35;0.15;;;;;;;;;;5115139;28;20110;-58
2020/12/22 11:35:31;;;;;;;0.20;0.10;;;;;;;;;;5106370;28;20110;-56
2020/12/22 11:41:14;;;;;;;0.40;0.10;;;;;;;;;;5094776;28;20024;-57
2020/12/22 11:44:09;;;;;;;0.88;0.20;;;;;;;;;;5118759;28;20441;-58
2020/12/22 11:46:51;;;;;;;0.17;0.10;;;;;;;;;;5119096;28;20434;-58
2020/12/22 11:49:33;;;;;;;0.65;0.35;;;;;;;;;;5119676;28;20128;-57
2020/12/22 11:58:25;;;;;;;0.50;0.20;;;;;;;;;;5118979;28;20053;-58
2020/12/22 12:01:24;;;;;;;0.40;0.30;;;;;;;;;;5073844;28;20477;-58
2020/12/22 12:09:52;;;;;;;0.10;0.10;;;;;;;;;;5038086;28;20072;-59
2020/12/22 12:16:08;;;;;;;0.20;0.15;;;;;;;;;;5113451;28;20384;-58
2020/12/22 12:18:49;;;;;;;0.10;0.10;;;;;;;;;;5099989;28;20483;-59
2020/12/22 12:21:22;;;;;;;0.25;0.10;;;;;;;;;;5080746;28;20089;-58
2020/12/22 12:23:54;;;;;;;0.63;0.17;;;;;;;;;;5099336;28;20055;-57
2020/12/22 12:26:35;;;;;;;0.40;0.20;;;;;;;;;;5118509;28;20035;-58
2020/12/22 12:29:29;;;;;;;0.65;0.20;;;;;;;;;;5101958;28;20342;-57
2020/12/22 12:32:53;;;;;;;;;;;;;;;;;;;;;
2020/12/22 12:35:51;;;;;;;4.05;1.05;;;;;;;;;;5098446;28;20376;-56
2020/12/22 12:38:34;;;;;;;2.45;1.40;;;;;;;;;;5117448;28;20518;-59
2020/12/22 12:41:29;;;;;;;0.90;0.32;;;;;;;;;;5098319;28;20574;-58
2020/12/22 12:44:05;;;;;;;0.47;0.25;;;;;;;;;;5116687;28;20492;-58
2020/12/22 12:47:02;;;;;;;2.80;0.88;;;;;;;;;;5117461;28;20020;-56
2020/12/22 12:55:48;;;;;;;0.63;0.30;;;;;;;;;;4975072;28;20074;-56
2020/12/22 12:58:40;;;;;;;0.20;0.10;;;;;;;;;;4957750;28;20515;-58
2020/12/22 13:04:37;;;;;;;;;;;;;;;;;;;;;
2020/12/22 13:07:23;;;;;;;0.17;0.10;;;;;;;;;;4975653;28;20031;-58
2020/12/22 13:12:49;;;;;;;0.32;0.20;;;;;;;;;;4975193;28;20161;-59
2020/12/22 13:15:24;;;;;;;0.40;0.13;;;;;;;;;;4975350;28;20134;-59
2020/12/22 13:21:42;;;;;;;1.27;0.20;;;;;;;;;;4974375;28;20523;-58
2020/12/22 13:24:24;;;;;;;;;;;;;;;;;;;;;
2020/12/22 13:27:02;;;;;;;0.30;0.17;;;;;;;;;;4952650;28;20053;-59
2020/12/22 13:32:42;;;;;;;0.43;0.30;;;;;;;;;;5033722;28;20429;-59
2020/12/22 13:35:14;;;;;;;1.00;0.20;;;;;;;;;;5033661;28;20052;-59
2020/12/22 13:37:57;;;;;;;0.22;0.10;;;;;;;;;;5034217;28;20029;-59
2020/12/22 13:40:45;;;;;;;0.32;0.20;;;;;;;;;;5057782;28;20065;-59
2020/12/22 13:43:33;;;;;;;0.50;0.30;;;;;;;;;;5073135;28;20567;-59
2020/12/22 13:46:20;;;;;;;1.23;0.43;;;;;;;;;;5073219;28;20123;-59
2020/12/22 13:49:16;;;;;;;0.32;0.20;;;;;;;;;;5074324;28;20052;-59
2020/12/22 13:51:52;;;;;;;0.65;0.17;;;;;;;;;;5014312;28;20037;-57
2020/12/22 14:00:42;;;;;;;0.30;0.10;;;;;;;;;;5073552;28;20027;-60
2020/12/22 14:06:29;;;;;;;0.10;0.10;;;;;;;;;;5036256;28;20068;-59
2020/12/22 14:12:42;;;;;;;0.70;0.30;;;;;;;;;;5042934;28;20358;-59
2020/12/22 14:15:49;;;;;;;0.60;0.30;;;;;;;;;;5064001;28;20100;-59
2020/12/22 14:18:19;;;;;;;0.45;0.20;;;;;;;;;;5077691;28;20028;-59
2020/12/22 14:24:11;;;;;;;0.17;0.08;;;;;;;;;;5116716;28;20040;-59
2020/12/22 14:26:37;;;;;;;0.10;0.10;;;;;;;;;;5115967;28;20126;-60
2020/12/22 14:29:12;;;;;;;0.38;0.20;;;;;;;;;;5081153;28;20122;-59
2020/12/22 14:35:05;;;;;;;0.47;0.20;;;;;;;;;;5118764;28;20027;-59
2020/12/22 14:40:49;;;;;;;;;;;;;;;;;;;;;
2020/12/22 14:46:50;;;;;;;;;;;;;;;;;;;;;
2020/12/22 14:49:54;;;;;;;;;;;;;;;;;;;;;
2020/12/22 14:52:33;;;;;;;0.32;0.15;;;;;;;;;;5115032;28;20439;-58
2020/12/22 14:55:14;;;;;;;0.80;0.20;;;;;;;;;;5115067;28;20026;-57
2020/12/22 14:58:02;;;;;;;0.75;0.30;;;;;;;;;;5115366;28;20465;-57
2020/12/22 15:03:51;;;;;;;0.60;0.30;;;;;;;;;;5097053;28;20594;-58
2020/12/22 15:09:39;;;;;;;0.68;0.30;;;;;;;;;;5072544;28;20176;-58
2020/12/22 15:15:53;;;;;;;0.32;0.17;;;;;;;;;;5074366;28;20077;-58
2020/12/22 15:18:38;;;;;;;;;;;;;;;;;;;;;
2020/12/22 15:21:41;;;;;;;0.98;0.35;;;;;;;;;;5101228;28;20052;-57
2020/12/22 15:24:28;;;;;;;0.55;0.30;;;;;;;;;;5091274;28;20086;-57
2020/12/22 15:27:27;;;;;;;0.85;0.25;;;;;;;;;;5075641;28;20501;-58
2020/12/22 15:30:12;;;;;;;0.40;0.25;;;;;;;;;;5049982;28;20077;-58
2020/12/22 15:33:08;;;;;;;0.88;0.40;;;;;;;;;;5075763;28;20032;-58
2020/12/22 15:35:45;;;;;;;0.85;0.30;;;;;;;;;;5074564;28;20021;-57
2020/12/22 15:41:52;;;;;;;;;;;;;;;;;;;;;
2020/12/22 15:44:25;;;;;;;0.45;0.20;;;;;;;;;;5094287;28;20024;-58
2020/12/22 15:50:08;;;;;;;0.60;0.32;;;;;;;;;;5094451;28;20116;-58
2020/12/22 16:05:05;;;;;;;1.02;0.20;;;;;;;;;;5094367;28;20031;-59
2020/12/22 16:11:23;;;;;;;0.50;0.25;;;;;;;;;;5089463;28;20064;-59
2020/12/22 16:14:21;;;;;;;;;;;;;;;;;;;;;
2020/12/22 16:17:35;;;;;;;;;;;;;;;;;;;;;
2020/12/22 16:20:25;;;;;;;0.68;0.40;;;;;;;;;;5106385;28;20059;-58
2020/12/22 16:26:28;;;;;;;0.80;0.50;;;;;;;;;;4948462;29;20051;-59
2020/12/22 16:31:59;;;;;;;1.92;0.40;;;;;;;;;;5100562;28;20062;-58
2020/12/22 16:34:34;;;;;;;1.08;0.50;;;;;;;;;;5110310;28;20078;-59
2020/12/22 16:37:42;;;;;;;1.67;0.93;;;;;;;;;;5067938;28;20072;-58
2020/12/22 16:40:17;;;;;;;0.60;0.35;;;;;;;;;;5007443;28;20093;-59
2020/12/22 16:42:56;;;;;;;0.85;0.40;;;;;;;;;;5008914;28;20042;-59
2020/12/22 16:45:59;;;;;;;2.45;0.52;;;;;;;;;;5007292;28;20096;-59
2020/12/22 16:48:30;;;;;;;1.25;0.65;;;;;;;;;;5007701;28;20069;-59
2020/12/22 16:51:31;;;;;;;;;;;;;;;;;;;;;
2020/12/22 16:54:18;;;;;;;0.90;0.47;;;;;;;;;;5064991;28;20112;-58
2020/12/22 16:57:01;;;;;;;0.90;0.57;;;;;;;;;;5050211;28;20033;-58
2020/12/22 17:02:27;;;;;;;1.27;0.50;;;;;;;;;;5048502;28;20060;-59
2020/12/22 17:05:06;;;;;;;1.13;0.65;;;;;;;;;;5064936;28;20044;-59
2020/12/22 17:07:45;;;;;;;;;;;;;;;;;;;;;
2020/12/22 17:10:30;;;;;;;;;;;;;;;;;;;;;
2020/12/22 17:13:17;;;;;;;1.35;0.65;;;;;;;;;;5094620;28;20190;-58
2020/12/22 17:16:17;;;;;;;2.30;0.90;;;;;;;;;;5074458;28;20507;-59
2020/12/22 17:21:59;;;;;;;0.95;0.50;;;;;;;;;;5088009;28;20044;-59
2020/12/22 17:24:41;;;;;;;1.00;0.45;;;;;;;;;;5086751;28;20036;-59
2020/12/22 17:27:24;;;;;;;1.55;0.70;;;;;;;;;;5116559;28;20205;-59
2020/12/22 17:30:04;;;;;;;1.40;0.60;;;;;;;;;;5116261;28;20100;-58
2020/12/22 17:32:58;;;;;;;;;;;;;;;;;;;;;
2020/12/22 17:35:57;;;;;;;2.15;0.68;;;;;;;;;;5102462;28;20375;-58
2020/12/22 17:38:43;;;;;;;;;;;;;;;;;;;;;
2020/12/22 17:41:44;;;;;;;0.55;0.40;;;;;;;;;;5116590;28;20035;-59
2020/12/22 17:45:01;;;;;;;;;;;;;;;;;;;;;
2020/12/22 17:47:53;;;;;;;2.33;0.77;;;;;;;;;;5033085;28;20053;-59
2020/12/22 17:50:28;;;;;;;1.70;1.08;;;;;;;;;;5115484;28;20097;-59
2020/12/22 17:56:27;;;;;;;1.00;0.57;;;;;;;;;;5011813;28;20030;-58
2020/12/22 17:59:18;;;;;;;1.40;0.90;;;;;;;;;;5013941;28;20506;-59
2020/12/22 18:05:08;;;;;;;1.33;0.60;;;;;;;;;;4998994;28;20041;-59
2020/12/22 18:07:56;;;;;;;1.92;1.17;;;;;;;;;;5013506;28;20064;-58
2020/12/22 18:13:40;;;;;;;1.10;0.50;;;;;;;;;;5013241;28;20111;-58
2020/12/22 18:16:25;;;;;;;1.67;0.90;;;;;;;;;;5012780;28;20034;-58
2020/12/22 18:19:08;;;;;;;1.30;0.88;;;;;;;;;;4974967;28;20262;-59
2020/12/22 18:24:34;;;;;;;1.97;1.07;;;;;;;;;;5033581;28;20453;-58
2020/12/22 18:27:41;;;;;;;2.22;1.25;;;;;;;;;;5015930;28;20293;-62
2020/12/22 18:33:48;;;;;;;0.75;0.40;;;;;;;;;;4955390;29;20477;-58
2020/12/22 18:36:45;;;;;;;1.42;0.68;;;;;;;;;;4875937;29;20043;-59
2020/12/22 18:39:30;;;;;;;1.20;0.82;;;;;;;;;;5017565;28;20041;-59
2020/12/22 18:42:37;;;;;;;1.75;1.13;;;;;;;;;;5033519;28;20445;-58
2020/12/22 18:45:26;;;;;;;1.60;0.85;;;;;;;;;;4955547;29;20097;-59
2020/12/22 18:51:18;;;;;;;1.63;0.93;;;;;;;;;;5056394;28;20032;-58
2020/12/22 18:54:00;;;;;;;1.33;0.73;;;;;;;;;;5094558;28;20473;-59
2020/12/22 18:59:55;;;;;;;;;;;;;;;;;;;;;
2020/12/22 19:02:40;;;;;;;1.70;0.88;;;;;;;;;;5095022;28;20024;-59
2020/12/22 19:05:49;;;;;;;;;;;;;;;;;;;;;
2020/12/22 19:08:58;;;;;;;;;;;;;;;;;;;;;
2020/12/22 19:11:47;;;;;;;2.45;0.55;;;;;;;;;;5095111;28;20046;-58
2020/12/22 19:14:41;;;;;;;1.65;0.75;;;;;;;;;;5094770;28;20031;-59
2020/12/22 19:17:39;;;;;;;0.73;0.43;;;;;;;;;;5092543;28;20417;-58
2020/12/22 19:20:13;;;;;;;1.23;0.57;;;;;;;;;;5023057;28;20041;-59
2020/12/22 19:26:20;;;;;;;;;;;;;;;;;;;;;
2020/12/22 19:29:18;;;;;;;2.78;1.83;;;;;;;;;;5036613;28;20480;-59
2020/12/22 19:32:12;;;;;;;2.45;1.40;;;;;;;;;;5012134;28;20034;-59
2020/12/22 19:34:56;;;;;;;1.20;0.70;;;;;;;;;;4996286;28;20029;-59
2020/12/22 19:37:34;;;;;;;2.15;1.38;;;;;;;;;;5013530;28;20120;-59
2020/12/22 19:40:09;;;;;;;2.75;1.75;;;;;;;;;;5016762;28;20041;-59
2020/12/22 19:45:56;;;;;;;3.13;2.08;;;;;;;;;;5038354;28;20066;-57
2020/12/22 19:51:22;;;;;;;1.92;1.08;;;;;;;;;;5050759;28;20506;-59
2020/12/22 19:54:21;;;;;;;2.63;1.73;;;;;;;;;;5034865;28;20147;-57
2020/12/22 19:57:11;;;;;;;2.15;1.40;;;;;;;;;;5047523;28;20065;-58
2020/12/22 20:00:04;;;;;;;2.88;2.05;;;;;;;;;;5053138;28;20482;-58
2020/12/22 20:05:51;;;;;;;;;;;;;;;;;;5095758;28;20538;-59
2020/12/22 20:08:22;;;;;;;1.75;0.85;;;;;;;;;;5096091;28;20395;-58
2020/12/22 20:13:56;;;;;;;1.60;1.00;;;;;;;;;;5094113;28;20024;-59
2020/12/22 20:19:19;;;;;;;2.70;1.42;;;;;;;;;;5097555;28;20107;-59
2020/12/22 20:22:00;;;;;;;2.10;1.38;;;;;;;;;;5097247;28;20028;-59
2020/12/22 20:24:45;;;;;;;3.05;1.75;;;;;;;;;;5083163;28;20058;-59
2020/12/22 20:27:26;;;;;;;2.03;1.42;;;;;;;;;;5118366;28;20055;-58
2020/12/22 20:30:36;;;;;;;1.80;1.23;;;;;;;;;;5117442;28;20021;-59
2020/12/22 20:33:08;;;;;;;1.55;0.55;;;;;;;;;;5034339;28;20048;-58
2020/12/22 20:38:40;;;;;;;2.00;0.93;;;;;;;;;;5090876;28;20031;-59
2020/12/22 20:41:44;;;;;;;1.73;0.90;;;;;;;;;;5095929;28;20035;-58
2020/12/22 20:44:34;;;;;;;2.38;1.48;;;;;;;;;;5018698;28;20523;-59
2020/12/22 20:50:06;;;;;;;1.67;0.73;;;;;;;;;;5019745;28;20029;-58
2020/12/22 20:52:47;;;;;;;1.38;0.82;;;;;;;;;;5035243;28;20513;-59
2020/12/22 20:55:37;;;;;;;1.13;0.57;;;;;;;;;;5030790;28;20037;-59
2020/12/22 20:58:12;;;;;;;1.83;0.45;;;;;;;;;;5052209;28;20525;-58
2020/12/22 21:00:45;;;;;;;1.25;0.60;;;;;;;;;;5118187;28;20028;-59
2020/12/22 21:03:49;;;;;;;1.13;0.55;;;;;;;;;;5117691;28;20035;-59
2020/12/22 21:09:53;;;;;;;0.85;0.45;;;;;;;;;;5066406;28;20071;-59
2020/12/22 21:12:46;;;;;;;2.92;0.98;;;;;;;;;;5057286;28;20041;-59
2020/12/22 21:18:37;;;;;;;4.20;0.77;;;;;;;;;;5074749;28;20487;-58
2020/12/22 21:21:36;;;;;;;1.35;0.73;;;;;;;;;;5057236;28;20025;-59
2020/12/22 21:24:24;;;;;;;3.47;0.80;;;;;;;;;;5074185;28;20497;-59
2020/12/22 21:30:09;;;;;;;;;;;;;;;;;;5073568;28;20039;-58
2020/12/22 21:32:53;;;;;;;0.75;0.40;;;;;;;;;;5116912;28;19904;-60
2020/12/22 21:35:29;;;;;;;1.08;0.68;;;;;;;;;;5116939;28;20028;-59
2020/12/22 21:38:28;;;;;;;2.08;0.73;;;;;;;;;;5116940;28;20028;-59
2020/12/22 21:41:06;;;;;;;1.85;0.70;;;;;;;;;;5089035;28;20393;-59
2020/12/22 21:47:54;;;;;;;1.98;0.70;;;;;;;;;;5081148;28;20040;-60
2020/12/22 21:50:50;;;;;;;1.13;0.75;;;;;;;;;;5102834;28;20032;-59
2020/12/22 21:56:34;;;;;;;;;;;;;;;;;;5033122;28;20060;-59
2020/12/22 21:59:18;;;;;;;0.80;0.40;;;;;;;;;;4994607;28;20347;-60
2020/12/22 22:02:26;;;;;;;1.65;0.70;;;;;;;;;;5001393;28;20054;-59
2020/12/22 22:08:07;;;;;;;2.53;0.77;;;;;;;;;;5085633;28;20047;-60
2020/12/22 22:16:35;;;;;;;0.88;0.40;;;;;;;;;;5062346;28;20045;-59
2020/12/22 22:19:24;;;;;;;0.83;0.57;;;;;;;;;;5043279;28;20160;-59
2020/12/22 22:22:02;;;;;;;3.53;0.82;;;;;;;;;;5036793;28;20042;-59
2020/12/22 22:24:39;;;;;;;0.90;0.47;;;;;;;;;;5041878;28;20045;-60
2020/12/22 22:27:34;;;;;;;1.00;0.50;;;;;;;;;;5026725;28;20563;-59
2020/12/22 22:33:04;;;;;;;0.82;0.47;;;;;;;;;;5047072;28;20172;-59
2020/12/22 22:35:45;;;;;;;0.73;0.50;;;;;;;;;;5039791;28;20033;-59
2020/12/22 22:38:27;;;;;;;4.15;0.77;;;;;;;;;;5047297;28;20049;-59
2020/12/22 22:41:21;;;;;;;1.10;0.60;;;;;;;;;;5047250;28;20104;-60
2020/12/22 22:47:02;;;;;;;1.05;0.60;;;;;;;;;;5047153;28;20043;-59
2020/12/22 22:50:06;;;;;;;0.35;0.22;;;;;;;;;;5036853;28;20093;-59
2020/12/22 22:52:45;;;;;;;0.55;0.25;;;;;;;;;;5017128;28;20041;-59
2020/12/22 23:01:55;;;;;;;1.20;0.68;;;;;;;;;;5023733;28;20056;-58
2020/12/22 23:04:40;;;;;;;1.00;0.63;;;;;;;;;;5026246;28;20045;-59
2020/12/22 23:07:46;;;;;;;1.25;0.60;;;;;;;;;;5027041;28;20057;-60
2020/12/22 23:10:34;;;;;;;;;;;;;;;;;;;;;
2020/12/22 23:15:50;;;;;;;5.40;0.88;;;;;;;;;;5094204;28;20139;-59
2020/12/22 23:18:26;;;;;;;1.05;0.55;;;;;;;;;;5108716;28;20024;-59
2020/12/22 23:21:21;;;;;;;1.17;0.57;;;;;;;;;;5097863;28;20036;-60
2020/12/22 23:23:50;;;;;;;1.75;0.95;;;;;;;;;;5090054;28;20032;-59
2020/12/22 23:29:31;;;;;;;1.30;0.60;;;;;;;;;;5108743;28;20102;-58
2020/12/22 23:34:58;;;;;;;0.85;0.50;;;;;;;;;;5027770;28;20061;-59
2020/12/22 23:40:49;;;;;;;1.30;0.47;;;;;;;;;;5089296;28;20370;-59
2020/12/22 23:46:22;;;;;;;0.93;0.57;;;;;;;;;;5113281;28;20085;-59
2020/12/22 23:49:09;;;;;;;0.35;0.30;;;;;;;;;;5112402;28;20039;-59
2020/12/22 23:52:19;;;;;;;1.08;0.70;;;;;;;;;;5030833;28;20052;-59
2020/12/22 23:54:46;;;;;;;1.08;0.57;;;;;;;;;;5107345;28;20036;-60
2020/12/22 23:57:35;;;;;;;1.08;0.63;;;;;;;;;;5112848;28;20053;-59
